Time;durP1;ratioP1;P1;durP2;ratioP2;P2;SDS_P1;SDS_P2;PMS_P1;PMS_P2;Temp;Humidity;BMP_temperature;BMP_pressure;BME280_temperature;BME280_humidity;BME280_pressure;Samples;Min_cycle;Max_cycle;Signal;HPM_P1;HPM_P2
2022/04/21 00:01:39;;;;;;;1.45;1.35;;;3.60;99.90;;;;;;5251763;28;20032;-79
2022/04/21 00:04:13;;;;;;;0.50;0.50;;;3.50;99.90;;;;;;5240501;28;20024;-78
2022/04/21 00:06:44;;;;;;;0.70;0.70;;;3.50;99.90;;;;;;5232504;28;20041;-78
2022/04/21 00:09:18;;;;;;;0.50;0.50;;;3.40;99.90;;;;;;5250280;28;20017;-78
2022/04/21 00:11:54;;;;;;;0.70;0.70;;;3.50;99.90;;;;;;5249023;28;20037;-79
2022/04/21 00:14:25;;;;;;;0.60;0.60;;;3.60;99.90;;;;;;5249374;28;20034;-78
2022/04/21 00:16:59;;;;;;;0.52;0.52;;;3.60;99.90;;;;;;5249814;28;20016;-78
2022/04/21 00:19:30;;;;;;;0.60;0.60;;;3.50;99.90;;;;;;5250023;28;20036;-78
2022/04/21 00:24:55;;;;;;;0.90;0.90;;;3.30;99.90;;;;;;5250493;28;20021;-77
2022/04/21 00:27:26;;;;;;;0.50;0.50;;;3.30;99.90;;;;;;5232319;28;20025;-79
2022/04/21 00:29:57;;;;;;;1.10;1.10;;;3.30;99.90;;;;;;5250142;28;20027;-79
2022/04/21 00:32:29;;;;;;;0.43;0.43;;;3.30;99.90;;;;;;5248245;28;20028;-79
2022/04/21 00:35:04;;;;;;;0.60;0.60;;;3.20;99.90;;;;;;5229226;28;20039;-79
2022/04/21 00:37:52;;;;;;;0.65;0.65;;;3.20;99.90;;;;;;5249496;28;20031;-79
2022/04/21 00:40:29;;;;;;;1.27;1.25;;;3.10;99.90;;;;;;5231622;28;20016;-78
2022/04/21 00:43:00;;;;;;;1.58;1.48;;;3.10;99.90;;;;;;5248858;28;20043;-78
2022/04/21 00:45:35;;;;;;;0.60;0.60;;;3.10;99.90;;;;;;5247443;28;20040;-78
2022/04/21 00:48:11;;;;;;;0.60;0.60;;;3.00;99.90;;;;;;5233562;28;20418;-77
2022/04/21 00:50:42;;;;;;;0.80;0.80;;;2.90;99.90;;;;;;5249433;28;20032;-78
2022/04/21 00:53:14;;;;;;;0.55;0.55;;;2.70;99.90;;;;;;5232761;28;20537;-77
2022/04/21 00:55:48;;;;;;;0.60;0.60;;;2.70;99.90;;;;;;5249822;28;20021;-78
2022/04/21 00:58:22;;;;;;;0.98;0.98;;;2.60;99.90;;;;;;5249654;28;20023;-76
2022/04/21 01:00:54;;;;;;;0.93;0.93;;;2.60;99.90;;;;;;5230595;28;20043;-77
2022/04/21 01:03:29;;;;;;;0.60;0.60;;;2.60;99.90;;;;;;5245137;28;20031;-78
2022/04/21 01:06:01;;;;;;;0.73;0.73;;;2.60;99.90;;;;;;5230895;28;20274;-78
2022/04/21 01:08:35;;;;;;;0.70;0.70;;;2.70;99.90;;;;;;5229220;28;20020;-78
2022/04/21 01:11:10;;;;;;;0.60;0.60;;;2.80;99.90;;;;;;5248169;28;20020;-77
2022/04/21 01:13:41;;;;;;;0.60;0.60;;;2.80;99.90;;;;;;5247480;28;20047;-78
2022/04/21 01:16:15;;;;;;;0.85;0.85;;;2.90;99.90;;;;;;5248048;28;20038;-77
2022/04/21 01:18:50;;;;;;;0.85;0.85;;;2.90;99.90;;;;;;5249213;28;20029;-77
2022/04/21 01:21:24;;;;;;;0.80;0.80;;;2.90;99.90;;;;;;5238367;28;20037;-77
2022/04/21 01:23:55;;;;;;;0.75;0.75;;;2.90;99.90;;;;;;5227193;28;20047;-78
2022/04/21 01:26:34;;;;;;;0.52;0.52;;;2.90;99.90;;;;;;5202372;28;20042;-78
2022/04/21 01:29:08;;;;;;;0.80;0.80;;;2.90;99.90;;;;;;5248559;28;20024;-77
2022/04/21 01:31:40;;;;;;;;;;;2.90;99.90;;;;;;5249346;28;20036;-77
2022/04/21 01:34:19;;;;;;;0.50;0.50;;;2.90;99.90;;;;;;5249695;28;19912;-76
2022/04/21 01:42:33;;;;;;;1.00;0.90;;;2.80;99.90;;;;;;5231652;28;20039;-79
2022/04/21 01:45:05;;;;;;;0.63;0.63;;;2.80;99.90;;;;;;5233127;28;20017;-78
2022/04/21 01:47:38;;;;;;;0.70;0.70;;;2.70;99.90;;;;;;5246963;28;20042;-78
2022/04/21 01:50:10;;;;;;;1.02;1.02;;;2.70;99.90;;;;;;5228486;28;20054;-79
2022/04/21 01:52:43;;;;;;;0.50;0.50;;;2.70;99.90;;;;;;5202936;28;20036;-78
2022/04/21 01:55:16;;;;;;;1.17;1.17;;;2.60;99.90;;;;;;5248073;28;20030;-79
2022/04/21 01:57:47;;;;;;;0.70;0.70;;;2.60;99.90;;;;;;5248211;28;20023;-78
2022/04/21 02:00:20;;;;;;;1.10;1.10;;;2.70;99.90;;;;;;5229816;28;20290;-78
2022/04/21 02:02:52;;;;;;;0.60;0.60;;;2.80;99.90;;;;;;5247596;28;20510;-78
2022/04/21 02:05:28;;;;;;;0.50;0.50;;;2.80;99.90;;;;;;5240867;28;20054;-78
2022/04/21 02:08:07;;;;;;;0.88;0.88;;;2.80;99.90;;;;;;5228844;28;20058;-78
2022/04/21 02:10:38;;;;;;;1.35;1.35;;;2.70;99.90;;;;;;5224925;28;20033;-78
2022/04/21 02:13:10;;;;;;;0.93;0.93;;;2.70;99.90;;;;;;5208616;28;20039;-79
2022/04/21 02:15:49;;;;;;;0.60;0.60;;;2.70;99.90;;;;;;5209145;28;20059;-79
2022/04/21 02:18:21;;;;;;;0.40;0.40;;;2.70;99.90;;;;;;5226029;28;20021;-78
2022/04/21 02:20:55;;;;;;;0.65;0.65;;;2.80;99.90;;;;;;5193803;28;20021;-78
2022/04/21 02:23:31;;;;;;;0.60;0.60;;;2.80;99.90;;;;;;5241553;28;20468;-78
2022/04/21 02:26:05;;;;;;;0.40;0.40;;;2.90;99.90;;;;;;5247322;28;20402;-79
2022/04/21 02:28:39;;;;;;;0.50;0.50;;;2.90;99.90;;;;;;5225514;28;20016;-78
2022/04/21 02:31:10;;;;;;;0.43;0.43;;;3.00;99.90;;;;;;5226943;28;20033;-78
2022/04/21 02:33:44;;;;;;;0.45;0.45;;;3.00;99.90;;;;;;5217677;28;20205;-78
2022/04/21 02:36:20;;;;;;;0.82;0.82;;;3.00;99.90;;;;;;5248347;28;20050;-78
2022/04/21 02:38:55;;;;;;;0.73;0.73;;;3.00;99.90;;;;;;5232214;28;20363;-79
2022/04/21 02:41:26;;;;;;;0.60;0.60;;;3.00;99.90;;;;;;5230852;28;20017;-78
2022/04/21 02:44:05;;;;;;;0.60;0.60;;;3.20;99.90;;;;;;5248283;28;20024;-78
2022/04/21 02:46:39;;;;;;;0.68;0.68;;;3.20;99.90;;;;;;5245609;28;20472;-78
2022/04/21 02:49:14;;;;;;;0.90;0.90;;;3.30;99.90;;;;;;5246810;28;20031;-78
2022/04/21 02:51:46;;;;;;;0.88;0.88;;;3.30;99.90;;;;;;5244695;28;20047;-78
2022/04/21 02:57:21;;;;;;;0.70;0.70;;;3.20;99.90;;;;;;5246373;28;20229;-77
2022/04/21 02:59:58;;;;;;;0.75;0.75;;;3.10;99.90;;;;;;5239418;28;20035;-76
2022/04/21 03:02:32;;;;;;;0.30;0.30;;;3.00;99.90;;;;;;5208355;28;20039;-77
2022/04/21 03:05:11;;;;;;;0.90;0.90;;;2.90;99.90;;;;;;5209422;28;20036;-78
2022/04/21 03:07:46;;;;;;;0.65;0.65;;;2.80;99.90;;;;;;5214672;28;20028;-79
2022/04/21 03:10:17;;;;;;;;;;;2.70;99.90;;;;;;5245733;28;20031;-78
2022/04/21 03:12:48;;;;;;;0.70;0.70;;;2.70;99.90;;;;;;5228253;28;19904;-78
2022/04/21 03:15:21;;;;;;;0.77;0.77;;;2.60;99.90;;;;;;5245741;28;20267;-78
2022/04/21 03:17:52;;;;;;;0.60;0.60;;;2.60;99.90;;;;;;5243496;28;20013;-77
2022/04/21 03:26:05;;;;;;;0.75;0.75;;;2.40;99.90;;;;;;5229962;28;20363;-78
2022/04/21 03:28:38;;;;;;;0.82;0.82;;;2.30;99.90;;;;;;5221335;28;20029;-78
2022/04/21 03:31:09;;;;;;;0.60;0.60;;;2.20;99.90;;;;;;5207305;28;20028;-78
2022/04/21 03:33:46;;;;;;;0.57;0.57;;;2.10;99.90;;;;;;5241562;28;20039;-78
2022/04/21 03:36:17;;;;;;;0.68;0.68;;;2.00;99.90;;;;;;5233900;28;20029;-78
2022/04/21 03:38:50;;;;;;;1.23;1.23;;;1.90;99.90;;;;;;5225145;28;20214;-77
2022/04/21 03:41:25;;;;;;;0.50;0.50;;;1.90;99.90;;;;;;5225147;28;20021;-78
2022/04/21 03:43:56;;;;;;;0.45;0.45;;;1.80;99.90;;;;;;5228276;28;20017;-78
2022/04/21 03:46:32;;;;;;;0.40;0.40;;;1.80;99.90;;;;;;5211667;28;20091;-78
2022/04/21 03:49:09;;;;;;;0.77;0.77;;;1.70;99.90;;;;;;5246570;28;20020;-78
2022/04/21 03:51:40;;;;;;;2.10;2.00;;;1.80;99.90;;;;;;5246138;28;20476;-77
2022/04/21 03:54:11;;;;;;;2.85;1.95;;;1.80;99.90;;;;;;5244661;28;20036;-78
2022/04/21 03:56:43;;;;;;;1.10;1.10;;;1.80;99.90;;;;;;5245773;28;20031;-75
2022/04/21 03:59:14;;;;;;;0.57;0.57;;;1.90;99.90;;;;;;5256080;28;20013;-78
2022/04/21 04:01:53;;;;;;;0.75;0.75;;;1.90;99.90;;;;;;5242262;28;20246;-79
2022/04/21 04:04:24;;;;;;;1.02;1.02;;;1.80;99.90;;;;;;5229583;28;20040;-76
2022/04/21 04:12:37;;;;;;;0.98;0.98;;;1.90;99.90;;;;;;5231420;28;20020;-77
2022/04/21 04:15:10;;;;;;;0.30;0.30;;;2.00;99.90;;;;;;5240379;28;20031;-75
2022/04/21 04:17:44;;;;;;;0.73;0.73;;;2.00;99.90;;;;;;5247810;28;20023;-78
2022/04/21 04:20:18;;;;;;;0.52;0.52;;;1.90;99.90;;;;;;5229076;28;20051;-76
2022/04/21 04:22:50;;;;;;;0.90;0.90;;;2.00;99.90;;;;;;5215317;28;20581;-76
2022/04/21 04:25:24;;;;;;;0.50;0.50;;;2.00;99.90;;;;;;5213770;28;20028;-77
2022/04/21 04:28:04;;;;;;;;;;;2.10;99.90;;;;;;5245707;28;20038;-77
2022/04/21 04:30:39;;;;;;;0.60;0.60;;;2.10;99.90;;;;;;5245798;28;19900;-77
2022/04/21 04:33:10;;;;;;;1.27;1.27;;;2.20;99.90;;;;;;5243401;28;20031;-76
2022/04/21 04:35:45;;;;;;;0.40;0.40;;;2.10;99.90;;;;;;5224446;28;20043;-78
2022/04/21 04:38:16;;;;;;;0.90;0.90;;;2.20;99.90;;;;;;5224639;28;20025;-78
2022/04/21 04:40:47;;;;;;;0.57;0.57;;;2.30;99.90;;;;;;5228596;28;20033;-79
2022/04/21 04:43:22;;;;;;;3.38;0.88;;;2.40;99.90;;;;;;5229961;28;20035;-78
2022/04/21 04:48:43;;;;;;;0.50;0.50;;;2.50;99.90;;;;;;5240873;28;19900;-76
2022/04/21 04:51:17;;;;;;;0.60;0.60;;;2.60;99.90;;;;;;5229712;28;20048;-77
2022/04/21 04:53:53;;;;;;;0.43;0.43;;;2.80;99.90;;;;;;5228267;28;20037;-76
2022/04/21 04:56:27;;;;;;;0.60;0.60;;;2.90;99.90;;;;;;5215936;28;20032;-77
2022/04/21 04:58:58;;;;;;;1.33;0.82;;;3.10;99.90;;;;;;5211346;28;20043;-78
2022/04/21 05:01:32;;;;;;;1.55;1.15;;;3.20;99.90;;;;;;5247227;28;20207;-77
2022/04/21 05:04:13;;;;;;;2.05;1.52;;;3.50;99.90;;;;;;5248953;28;20028;-80
2022/04/21 05:06:50;;;;;;;0.90;0.90;;;3.70;99.90;;;;;;5219863;28;20044;-78
2022/04/21 05:09:25;;;;;;;0.60;0.60;;;4.10;99.90;;;;;;5230058;28;20028;-78
2022/04/21 05:11:59;;;;;;;0.90;0.90;;;4.50;99.90;;;;;;5251423;28;20042;-78
2022/04/21 05:14:30;;;;;;;1.38;1.38;;;4.90;99.90;;;;;;5251078;28;20036;-79
2022/04/21 05:17:04;;;;;;;0.60;0.60;;;5.30;99.90;;;;;;5214387;28;20054;-79
2022/04/21 05:19:36;;;;;;;0.77;0.77;;;5.60;99.90;;;;;;5233934;28;20209;-79
2022/04/21 05:22:12;;;;;;;1.40;1.30;;;5.90;99.90;;;;;;5232750;28;20036;-79
2022/04/21 05:24:53;;;;;;;0.50;0.50;;;5.90;99.90;;;;;;5231897;28;20347;-78
2022/04/21 05:27:24;;;;;;;1.55;1.52;;;6.10;99.90;;;;;;5232315;28;20028;-79
2022/04/21 05:32:51;;;;;;;0.57;0.57;;;6.40;99.90;;;;;;5248250;28;20039;-78
2022/04/21 05:35:23;;;;;;;2.22;2.13;;;6.50;99.90;;;;;;5248023;28;20024;-79
2022/04/21 05:37:55;;;;;;;1.30;1.30;;;6.60;99.90;;;;;;5235256;28;20025;-79
2022/04/21 05:40:27;;;;;;;1.38;1.35;;;6.80;99.90;;;;;;5209276;28;20059;-79
2022/04/21 05:43:07;;;;;;;1.15;1.15;;;7.20;99.90;;;;;;5226151;28;20033;-79
2022/04/21 05:45:45;;;;;;;0.90;0.90;;;7.30;99.90;;;;;;5227335;28;20025;-79
2022/04/21 05:48:19;;;;;;;0.68;0.68;;;7.40;99.90;;;;;;5233210;28;20588;-79
2022/04/21 05:50:53;;;;;;;1.50;1.27;;;7.40;99.90;;;;;;5247613;28;20036;-79
2022/04/21 05:53:27;;;;;;;1.35;1.35;;;7.40;99.90;;;;;;5246155;28;20475;-79
2022/04/21 05:55:59;;;;;;;1.15;1.15;;;7.80;99.90;;;;;;5229766;28;20051;-78
2022/04/21 05:58:31;;;;;;;1.55;1.30;;;7.90;99.90;;;;;;5247477;28;20340;-78
2022/04/21 06:01:08;;;;;;;0.50;0.50;;;7.80;99.90;;;;;;5250557;28;20029;-79
2022/04/21 06:03:41;;;;;;;1.17;1.17;;;7.80;99.90;;;;;;5237794;28;20015;-77
2022/04/21 06:06:12;;;;;;;1.33;1.33;;;8.20;99.90;;;;;;5173177;28;20048;-78
2022/04/21 06:08:44;;;;;;;1.08;1.08;;;8.70;99.90;;;;;;5245314;28;20338;-78
2022/04/21 06:11:17;;;;;;;1.42;1.42;;;8.40;99.90;;;;;;5225665;28;20102;-78
2022/04/21 06:13:52;;;;;;;1.75;1.65;;;8.20;99.90;;;;;;5253370;28;20033;-77
2022/04/21 06:16:23;;;;;;;1.27;1.27;;;8.60;99.90;;;;;;5246771;28;20047;-78
2022/04/21 06:18:54;;;;;;;1.13;1.13;;;8.10;99.90;;;;;;5241142;28;20042;-78
2022/04/21 06:21:26;;;;;;;1.15;1.15;;;8.10;99.90;;;;;;5240536;28;20142;-79
2022/04/21 06:24:01;;;;;;;1.38;1.38;;;8.40;99.90;;;;;;5244509;28;20038;-78
2022/04/21 06:26:33;;;;;;;0.90;0.90;;;9.10;99.90;;;;;;5243991;28;20037;-77
2022/04/21 06:29:05;;;;;;;1.23;1.23;;;9.40;99.90;;;;;;5243967;28;20058;-77
2022/04/21 06:31:40;;;;;;;4.75;4.22;;;9.80;99.90;;;;;;5254934;28;20018;-78
2022/04/21 06:34:17;;;;;;;1.27;1.23;;;10.10;99.90;;;;;;5249095;28;20024;-78
2022/04/21 06:36:50;;;;;;;0.75;0.75;;;10.10;99.90;;;;;;5251491;28;20032;-78
2022/04/21 06:39:23;;;;;;;0.98;0.98;;;10.40;99.90;;;;;;5207573;28;20410;-76
2022/04/21 06:41:54;;;;;;;0.80;0.80;;;10.20;99.90;;;;;;5207692;28;20021;-76
2022/04/21 06:50:08;;;;;;;1.08;1.08;;;10.00;99.90;;;;;;5246412;28;20058;-79
2022/04/21 06:52:42;;;;;;;2.30;2.10;;;10.30;99.90;;;;;;5220191;28;20046;-78
2022/04/21 06:55:13;;;;;;;1.25;1.25;;;9.90;99.90;;;;;;5245869;28;20028;-78
2022/04/21 06:57:45;;;;;;;0.95;0.95;;;10.40;99.90;;;;;;5218097;28;20028;-79
2022/04/21 07:00:19;;;;;;;0.90;0.90;;;10.90;99.90;;;;;;5221159;28;20429;-78
2022/04/21 07:02:55;;;;;;;1.85;1.75;;;11.50;99.90;;;;;;5222523;28;20434;-78
2022/04/21 07:05:27;;;;;;;1.05;1.05;;;11.70;99.90;;;;;;5213340;28;20052;-79
2022/04/21 07:07:58;;;;;;;1.70;1.63;;;11.30;99.90;;;;;;5206716;28;20029;-79
2022/04/21 07:10:30;;;;;;;1.25;1.25;;;11.00;99.90;;;;;;5243450;28;20040;-78
2022/04/21 07:13:11;;;;;;;1.75;1.65;;;10.90;99.90;;;;;;5257792;28;20050;-79
2022/04/21 07:15:42;;;;;;;1.40;1.35;;;11.50;99.90;;;;;;5256719;28;20040;-78
2022/04/21 07:18:18;;;;;;;1.58;1.50;;;12.00;99.90;;;;;;5246992;28;20024;-79
2022/04/21 07:20:51;;;;;;;1.50;1.48;;;12.20;99.90;;;;;;5254026;28;20024;-79
2022/04/21 07:23:23;;;;;;;1.10;1.10;;;11.90;99.90;;;;;;5248541;28;20031;-79
2022/04/21 07:25:54;;;;;;;2.25;2.05;;;11.60;99.90;;;;;;5246163;28;20017;-79
2022/04/21 07:28:26;;;;;;;2.22;2.13;;;11.90;99.90;;;;;;5241624;28;20023;-79
2022/04/21 07:31:00;;;;;;;1.05;1.05;;;12.60;99.90;;;;;;5220218;28;20036;-77
2022/04/21 07:33:33;;;;;;;1.60;1.60;;;13.20;99.90;;;;;;5246375;28;20033;-76
2022/04/21 07:36:04;;;;;;;1.80;1.77;;;13.80;99.90;;;;;;5241429;28;20045;-77
2022/04/21 07:38:54;;;;;;;1.27;1.27;;;13.70;99.90;;;;;;5227091;28;20035;-78
2022/04/21 07:41:25;;;;;;;1.25;1.25;;;13.10;99.90;;;;;;5225197;28;20021;-76
2022/04/21 07:43:58;;;;;;;0.90;0.90;;;13.10;99.90;;;;;;5225920;28;20314;-78
2022/04/21 07:46:29;;;;;;;1.75;1.70;;;13.40;99.90;;;;;;5226609;28;20024;-80
2022/04/21 07:53:13;;;;;;;1.35;1.33;;;12.50;99.90;;;;;;5246599;28;20025;-78
2022/04/21 07:54:48;;;;;;;1.42;1.42;;;12.80;99.90;;;;;;5247288;28;20032;-77
2022/04/21 07:57:22;;;;;;;1.00;1.00;;;13.30;99.90;;;;;;5247202;28;20025;-75
2022/04/21 07:59:53;;;;;;;1.10;1.10;;;13.60;99.90;;;;;;5240301;28;20254;-77
2022/04/21 08:02:24;;;;;;;1.23;1.23;;;13.80;99.90;;;;;;5209187;28;20594;-77
2022/04/21 08:04:55;;;;;;;2.22;2.13;;;14.00;99.90;;;;;;5231515;28;20055;-77
2022/04/21 08:07:34;;;;;;;1.33;1.33;;;13.90;99.90;;;;;;5227935;28;20489;-77
2022/04/21 08:10:11;;;;;;;2.05;1.95;;;13.20;99.90;;;;;;5228045;28;20257;-79
2022/04/21 08:12:51;;;;;;;2.75;2.65;;;13.90;99.90;;;;;;5228017;28;20051;-79
2022/04/21 08:15:34;;;;;;;1.55;1.55;;;14.40;99.90;;;;;;5226218;28;20036;-79
2022/04/21 08:18:08;;;;;;;1.48;1.45;;;14.90;99.90;;;;;;5250491;28;20023;-79
2022/04/21 08:20:40;;;;;;;2.15;2.05;;;15.00;99.90;;;;;;5263020;28;20035;-79
2022/04/21 08:23:14;;;;;;;1.25;1.25;;;14.50;99.90;;;;;;5263045;28;20538;-78
2022/04/21 08:34:21;;;;;;;0.80;0.80;;;15.90;99.90;;;;;;5245317;28;20021;-75
2022/04/21 08:36:52;;;;;;;1.33;1.33;;;16.40;99.90;;;;;;5234809;28;20024;-78
2022/04/21 08:39:27;;;;;;;1.35;1.35;;;16.10;99.90;;;;;;5248833;28;20254;-76
2022/04/21 08:42:10;;;;;;;1.27;1.27;;;15.60;99.90;;;;;;5249499;28;20013;-77
2022/04/21 08:44:48;;;;;;;1.02;1.02;;;16.30;99.90;;;;;;5247248;28;20036;-77
2022/04/21 08:47:22;;;;;;;1.13;1.13;;;16.80;99.90;;;;;;5248963;28;20099;-77
2022/04/21 08:50:05;;;;;;;1.92;1.83;;;16.70;99.90;;;;;;5224105;28;20036;-76
2022/04/21 08:52:40;;;;;;;1.50;1.50;;;16.70;99.90;;;;;;5247506;28;20325;-77
2022/04/21 08:55:21;;;;;;;1.17;1.17;;;17.20;99.90;;;;;;5216234;28;20390;-77
2022/04/21 08:57:56;;;;;;;1.15;1.08;;;17.10;99.90;;;;;;5214305;28;20040;-76
2022/04/21 09:00:31;;;;;;;1.10;1.10;;;17.00;99.90;;;;;;5246302;28;20378;-76
2022/04/21 09:03:13;;;;;;;;;;;17.20;99.90;;;;;;5249682;28;20589;-75
2022/04/21 09:05:44;;;;;;;1.85;1.80;;;17.20;99.90;;;;;;5222911;28;19923;-78
2022/04/21 09:08:22;;;;;;;1.23;1.23;;;17.00;99.90;;;;;;5236066;28;20522;-76
2022/04/21 09:11:08;;;;;;;2.05;1.95;;;17.30;99.90;;;;;;5245433;28;20496;-78
2022/04/21 09:13:42;;;;;;;2.13;2.03;;;17.40;99.90;;;;;;5271099;28;20467;-78
2022/04/21 09:16:20;;;;;;;2.35;2.15;;;17.90;99.90;;;;;;5232199;28;20033;-77
2022/04/21 09:19:01;;;;;;;1.75;1.60;;;17.60;99.90;;;;;;5238947;28;20027;-78
2022/04/21 09:21:37;;;;;;;1.13;1.13;;;17.30;99.90;;;;;;5246495;28;20034;-75
2022/04/21 09:24:22;;;;;;;3.00;2.80;;;17.40;99.90;;;;;;5248055;28;20024;-77
2022/04/21 09:26:55;;;;;;;1.92;1.77;;;17.90;99.90;;;;;;5241280;28;20017;-76
2022/04/21 09:29:33;;;;;;;2.10;2.00;;;17.80;99.90;;;;;;5233353;28;20039;-77
2022/04/21 09:32:05;;;;;;;1.58;1.52;;;18.20;99.90;;;;;;5247519;28;20012;-76
2022/04/21 09:34:39;;;;;;;2.22;2.13;;;18.50;99.90;;;;;;5233856;28;20461;-77
2022/04/21 09:37:13;;;;;;;0.98;0.98;;;17.70;99.90;;;;;;5208926;28;20033;-79
2022/04/21 09:39:52;;;;;;;1.75;1.65;;;17.60;99.90;;;;;;5230424;28;20036;-75
2022/04/21 09:42:31;;;;;;;1.38;1.38;;;18.30;99.90;;;;;;5225758;28;20348;-76
2022/04/21 09:48:03;;;;;;;2.00;1.88;;;19.00;99.90;;;;;;5246127;28;20020;-76
2022/04/21 09:50:42;;;;;;;1.77;1.67;;;19.60;99.90;;;;;;5246076;28;20028;-75
2022/04/21 09:53:13;;;;;;;1.60;1.50;;;19.80;99.90;;;;;;5228900;28;20028;-78
2022/04/21 09:55:47;;;;;;;2.47;2.38;;;19.40;99.90;;;;;;5228489;28;20032;-77
2022/04/21 09:58:21;;;;;;;4.13;3.78;;;18.60;99.90;;;;;;5246588;28;20489;-76
2022/04/21 10:01:02;;;;;;;1.75;1.65;;;18.80;99.90;;;;;;5244777;28;20367;-77
2022/04/21 10:03:34;;;;;;;1.42;1.42;;;19.00;99.90;;;;;;5228317;28;20040;-75
2022/04/21 10:06:06;;;;;;;2.08;1.98;;;19.50;99.90;;;;;;5235828;28;20048;-77
2022/04/21 10:08:43;;;;;;;2.22;2.13;;;19.30;99.90;;;;;;5230494;28;20202;-77
2022/04/21 10:11:17;;;;;;;1.00;1.00;;;19.30;99.90;;;;;;5225637;28;20027;-77
2022/04/21 10:13:51;;;;;;;1.08;0.98;;;19.50;99.90;;;;;;5227760;28;20028;-76
2022/04/21 10:16:28;;;;;;;2.45;2.05;;;18.40;99.90;;;;;;5246212;28;20032;-79
2022/04/21 10:19:00;;;;;;;1.95;1.85;;;19.10;99.90;;;;;;5223888;28;20032;-78
2022/04/21 10:21:36;;;;;;;1.35;1.35;;;19.40;99.90;;;;;;5245837;28;20026;-75
2022/04/21 10:24:11;;;;;;;1.70;1.60;;;20.00;99.90;;;;;;5235301;28;20047;-75
2022/04/21 10:26:43;;;;;;;2.10;2.00;;;20.50;99.90;;;;;;5207486;28;20039;-78
2022/04/21 10:29:22;;;;;;;11.60;2.30;;;21.50;99.90;;;;;;5207011;28;20036;-75
2022/04/21 10:32:01;;;;;;;1.88;1.77;;;21.20;99.90;;;;;;5207940;28;20035;-76
2022/04/21 10:34:36;;;;;;;1.33;1.27;;;21.60;99.90;;;;;;5239686;28;20024;-79
2022/04/21 10:37:24;;;;;;;1.70;1.65;;;21.60;99.90;;;;;;5228029;28;20034;-77
2022/04/21 10:40:05;;;;;;;1.08;1.08;;;21.70;99.90;;;;;;5237801;28;20031;-78
2022/04/21 10:42:52;;;;;;;1.17;1.17;;;23.10;99.90;;;;;;5224434;28;20021;-77
2022/04/21 10:45:33;;;;;;;1.15;1.15;;;22.90;99.90;;;;;;5242901;28;20028;-77
2022/04/21 10:48:14;;;;;;;1.73;1.63;;;23.00;99.90;;;;;;5219767;28;20043;-78
2022/04/21 10:50:45;;;;;;;2.28;2.08;;;23.80;99.90;;;;;;5225830;28;20036;-79
2022/04/21 10:59:12;;;;;;;1.38;1.35;;;23.70;99.90;;;;;;5224296;28;20027;-76
2022/04/21 11:01:56;;;;;;;0.80;0.80;;;24.20;99.90;;;;;;5223810;28;20039;-77
2022/04/21 11:04:33;;;;;;;1.65;1.58;;;23.80;99.90;;;;;;5216059;28;20025;-77
2022/04/21 11:07:10;;;;;;;1.08;1.08;;;23.50;99.90;;;;;;5244198;28;20033;-78
2022/04/21 11:09:43;;;;;;;0.90;0.90;;;23.60;99.90;;;;;;5245167;28;20028;-76
2022/04/21 11:12:35;;;;;;;1.48;1.42;;;24.20;99.90;;;;;;5245508;28;20020;-79
2022/04/21 11:15:38;;;;;;;1.50;1.40;;;24.40;99.90;;;;;;5225690;28;20234;-76
2022/04/21 11:18:12;;;;;;;5.07;2.92;;;24.80;99.90;;;;;;5245078;28;20023;-76
2022/04/21 11:20:51;;;;;;;1.17;0.90;;;22.40;99.90;;;;;;5226940;28;20375;-75
2022/04/21 11:23:45;;;;;;;1.85;1.75;;;22.90;99.90;;;;;;5244664;28;20032;-78
2022/04/21 11:26:20;;;;;;;0.73;0.73;;;25.30;99.90;;;;;;5244513;28;20223;-79
2022/04/21 11:28:56;;;;;;;0.73;0.73;;;26.70;99.90;;;;;;5226533;28;20241;-78
2022/04/21 11:31:28;;;;;;;0.68;0.68;;;27.40;99.90;;;;;;5243976;28;20464;-77
2022/04/21 11:34:02;;;;;;;0.93;0.93;;;26.90;99.90;;;;;;5245647;28;20029;-78
2022/04/21 11:36:35;;;;;;;1.10;1.10;;;26.10;99.90;;;;;;5239962;28;20040;-77
2022/04/21 11:39:08;;;;;;;0.68;0.68;;;24.10;99.90;;;;;;5236207;28;20035;-77
2022/04/21 11:41:44;;;;;;;0.70;0.70;;;24.10;99.90;;;;;;5221521;28;20024;-79
2022/04/21 11:44:22;;;;;;;0.88;0.88;;;24.50;99.90;;;;;;5233177;28;20286;-77
2022/04/21 11:46:56;;;;;;;0.93;0.93;;;25.80;99.90;;;;;;5233922;28;20040;-76
2022/04/21 11:49:30;;;;;;;0.80;0.80;;;27.00;99.90;;;;;;5231283;28;20032;-79
2022/04/21 11:52:05;;;;;;;0.43;0.43;;;26.90;99.90;;;;;;5214384;28;20046;-78
2022/04/21 11:54:38;;;;;;;0.80;0.80;;;25.60;99.90;;;;;;5248237;28;20024;-77
2022/04/21 11:57:11;;;;;;;1.33;1.33;;;25.80;99.90;;;;;;5249828;28;20035;-77
2022/04/21 11:59:44;;;;;;;0.77;0.77;;;24.00;99.90;;;;;;5249142;28;20031;-77
2022/04/21 12:07:59;;;;;;;1.27;0.90;;;25.10;99.90;;;;;;5247671;28;20029;-75
2022/04/21 12:10:31;;;;;;;0.50;0.50;;;25.60;99.90;;;;;;5249154;28;20024;-75
2022/04/21 12:13:03;;;;;;;0.80;0.77;;;24.40;99.90;;;;;;5247895;28;20020;-78
2022/04/21 12:15:39;;;;;;;1.00;1.00;;;25.30;99.90;;;;;;5231649;28;20036;-77
2022/04/21 12:18:10;;;;;;;0.90;0.82;;;26.90;99.60;;;;;;5236813;28;20020;-80
2022/04/21 12:20:59;;;;;;;0.85;0.85;;;27.50;98.80;;;;;;5222795;28;20032;-79
2022/04/21 12:23:32;;;;;;;0.82;0.82;;;28.00;97.20;;;;;;5248568;28;20025;-76
2022/04/21 12:26:08;;;;;;;0.73;0.73;;;28.00;97.40;;;;;;5248069;28;20032;-77
2022/04/21 12:28:53;;;;;;;0.60;0.60;;;27.60;96.80;;;;;;5233976;28;20032;-76
2022/04/21 12:31:27;;;;;;;0.60;0.60;;;25.80;97.50;;;;;;5242702;28;20021;-77
2022/04/21 12:33:59;;;;;;;0.40;0.40;;;25.60;98.00;;;;;;5239217;28;20075;-79
2022/04/21 12:36:33;;;;;;;1.05;1.05;;;25.20;97.00;;;;;;5215407;28;20021;-80
2022/04/21 12:39:04;;;;;;;0.50;0.50;;;24.70;97.40;;;;;;5239675;28;20245;-80
2022/04/21 12:41:38;;;;;;;0.52;0.52;;;24.90;97.50;;;;;;5255962;28;20022;-79
2022/04/21 12:44:10;;;;;;;1.23;1.05;;;24.60;97.60;;;;;;5237887;28;20040;-78
2022/04/21 12:46:47;;;;;;;1.23;1.23;;;23.40;98.00;;;;;;5244118;28;20028;-76
2022/04/21 12:49:19;;;;;;;0.40;0.40;;;23.70;97.80;;;;;;5261294;28;20020;-76
2022/04/21 12:51:58;;;;;;;0.57;0.57;;;24.40;97.50;;;;;;5254199;28;20047;-77
2022/04/21 12:54:33;;;;;;;0.88;0.88;;;26.40;96.60;;;;;;5249270;28;20021;-77
2022/04/21 12:57:07;;;;;;;0.70;0.70;;;24.90;96.80;;;;;;5247609;28;20036;-77
2022/04/21 12:59:41;;;;;;;0.50;0.50;;;26.40;97.00;;;;;;5241093;28;20021;-78
2022/04/21 13:02:13;;;;;;;0.60;0.60;;;25.50;96.30;;;;;;5227766;28;20029;-79
2022/04/21 13:04:47;;;;;;;0.52;0.52;;;26.00;97.20;;;;;;5220275;28;20060;-78
2022/04/21 13:07:20;;;;;;;1.87;1.10;;;25.90;95.50;;;;;;5227125;28;20035;-78
2022/04/21 13:09:52;;;;;;;0.43;0.43;;;26.20;95.10;;;;;;5237921;28;20035;-77
2022/04/21 13:12:23;;;;;;;0.30;0.30;;;26.80;94.80;;;;;;5224366;28;20036;-79
2022/04/21 13:15:00;;;;;;;0.35;0.35;;;26.10;95.60;;;;;;5245767;28;20020;-78
2022/04/21 13:17:34;;;;;;;8.60;2.38;;;25.10;95.20;;;;;;5246956;28;20033;-75
2022/04/21 13:20:07;;;;;;;0.45;0.45;;;24.90;95.60;;;;;;5229276;28;20035;-77
2022/04/21 13:22:39;;;;;;;0.40;0.40;;;25.20;95.10;;;;;;5242943;28;20024;-79
2022/04/21 13:25:10;;;;;;;0.50;0.50;;;26.10;95.40;;;;;;5224431;28;20033;-78
2022/04/21 13:27:41;;;;;;;0.40;0.40;;;26.50;94.50;;;;;;5241447;28;20034;-78
2022/04/21 13:30:15;;;;;;;0.55;0.55;;;26.80;95.00;;;;;;5245344;28;20017;-79
2022/04/21 13:35:40;;;;;;;0.55;0.55;;;26.60;93.70;;;;;;5243928;28;20471;-77
2022/04/21 13:38:11;;;;;;;0.50;0.50;;;26.90;94.60;;;;;;5238646;28;20027;-79
2022/04/21 13:40:43;;;;;;;0.40;0.40;;;28.20;93.60;;;;;;5234509;28;20028;-78
2022/04/21 13:43:15;;;;;;;0.60;0.60;;;26.30;94.30;;;;;;5228015;28;20063;-78
2022/04/21 13:45:46;;;;;;;0.40;0.40;;;25.80;95.00;;;;;;5207408;28;20037;-79
2022/04/21 13:48:17;;;;;;;0.50;0.50;;;23.70;95.70;;;;;;5225612;28;20029;-77
2022/04/21 13:50:49;;;;;;;0.50;0.50;;;21.40;98.50;;;;;;5227008;28;20549;-75
2022/04/21 13:53:20;;;;;;;0.30;0.30;;;22.00;98.50;;;;;;5245979;28;20032;-77
2022/04/21 13:55:51;;;;;;;1.08;1.08;;;22.70;97.90;;;;;;5245083;28;20361;-77
2022/04/21 13:58:25;;;;;;;0.30;0.30;;;23.30;98.10;;;;;;5245448;28;20029;-77
2022/04/21 14:00:56;;;;;;;0.68;0.68;;;24.70;96.50;;;;;;5245519;28;20203;-79
2022/04/21 14:03:28;;;;;;;0.98;0.98;;;24.90;96.90;;;;;;5229627;28;20032;-76
2022/04/21 14:05:59;;;;;;;0.70;0.70;;;24.20;96.70;;;;;;5233152;28;20435;-78
2022/04/21 14:08:34;;;;;;;0.50;0.50;;;22.70;97.30;;;;;;5221269;28;20032;-77
2022/04/21 14:11:07;;;;;;;0.70;0.70;;;23.90;97.20;;;;;;5225718;28;20051;-79
2022/04/21 14:13:41;;;;;;;1.50;0.73;;;23.70;97.10;;;;;;5223583;28;20029;-77
2022/04/21 14:16:17;;;;;;;0.60;0.60;;;24.60;96.80;;;;;;5231438;28;20636;-78
2022/04/21 14:18:48;;;;;;;0.60;0.60;;;25.80;96.40;;;;;;5236771;28;20476;-76
2022/04/21 14:21:20;;;;;;;0.20;0.20;;;26.60;95.30;;;;;;5223348;28;20039;-78
2022/04/21 14:23:51;;;;;;;0.55;0.55;;;27.20;94.90;;;;;;5224024;28;20539;-77
2022/04/21 14:26:29;;;;;;;1.80;1.70;;;25.40;94.60;;;;;;5223479;28;20028;-79
2022/04/21 14:29:00;;;;;;;0.55;0.55;;;24.90;95.50;;;;;;5222278;28;20033;-76
2022/04/21 14:31:34;;;;;;;0.30;0.30;;;23.90;95.80;;;;;;5223711;28;20606;-77
2022/04/21 14:34:07;;;;;;;0.60;0.60;;;24.10;96.10;;;;;;5236499;28;20486;-77